Time;durP1;ratioP1;P1;durP2;ratioP2;P2;SDS_P1;SDS_P2;PMS_P1;PMS_P2;Temp;Humidity;BMP_temperature;BMP_pressure;BME280_temperature;BME280_humidity;BME280_pressure;Samples;Min_cycle;Max_cycle;Signal;HPM_P1;HPM_P2
2023/02/26 00:01:28;;;;;;;2.80;1.63;;;;;;;1.60;66.24;96044.44;5035944;28;20114;-79
2023/02/26 00:03:58;;;;;;;2.25;1.70;;;;;;;1.61;66.08;96053.75;5036927;28;20057;-79
2023/02/26 00:06:27;;;;;;;2.70;1.92;;;;;;;1.60;65.93;96044.44;5026827;28;20057;-79
2023/02/26 00:08:56;;;;;;;2.95;1.70;;;;;;;1.57;65.40;96047.28;5017052;28;20046;-79
2023/02/26 00:11:24;;;;;;;2.42;1.73;;;;;;;1.56;66.90;96039.72;5016297;28;20061;-79
2023/02/26 00:13:52;;;;;;;3.47;1.65;;;;;;;1.59;66.02;96047.94;5016524;28;20073;-79
2023/02/26 00:16:27;;;;;;;1.85;1.50;;;;;;;1.54;65.44;96051.91;5016761;28;20049;-79
2023/02/26 00:18:55;;;;;;;3.97;1.70;;;;;;;1.52;65.59;96046.09;5015766;28;20057;-79
2023/02/26 00:21:25;;;;;;;5.20;1.70;;;;;;;1.52;65.57;96049.47;5015657;28;20076;-79
2023/02/26 00:23:55;;;;;;;3.05;1.48;;;;;;;1.54;66.01;96051.91;5016127;28;20056;-79
2023/02/26 00:26:25;;;;;;;2.70;1.60;;;;;;;1.52;65.04;96054.59;5015435;28;20085;-79
2023/02/26 00:28:54;;;;;;;2.80;1.73;;;;;;;1.51;66.03;96063.28;5015167;28;20054;-79
2023/02/26 00:31:23;;;;;;;2.92;1.58;;;;;;;1.53;65.22;96063.13;5015492;28;20587;-78
2023/02/26 00:33:51;;;;;;;2.97;1.85;;;;;;;1.47;64.73;96061.94;5015057;28;20050;-78
2023/02/26 00:36:22;;;;;;;2.10;1.90;;;;;;;1.42;64.14;96070.06;5015035;28;20046;-79
2023/02/26 00:39:06;;;;;;;4.38;1.50;;;;;;;1.38;63.55;96073.84;5014832;28;20100;-79
2023/02/26 00:41:35;;;;;;;1.95;1.40;;;;;;;1.38;65.00;96073.84;5015394;28;20062;-79
2023/02/26 00:44:03;;;;;;;3.15;1.60;;;;;;;1.33;64.63;96080.31;5014856;28;20137;-79
2023/02/26 00:46:42;;;;;;;3.40;1.60;;;;;;;1.29;66.53;96084.13;5015141;28;20053;-79
2023/02/26 00:49:19;;;;;;;2.17;1.50;;;;;;;1.31;64.28;96084.78;5014155;28;20073;-79
2023/02/26 00:51:51;;;;;;;3.28;1.40;;;;;;;1.28;64.13;96078.16;5014799;28;20046;-78
2023/02/26 00:54:22;;;;;;;5.70;1.52;;;;;;;1.26;63.94;96079.25;5014795;28;20140;-79
2023/02/26 00:56:51;;;;;;;3.30;1.63;;;;;;;1.17;63.44;96076.56;5014861;28;20050;-79
2023/02/26 00:59:19;;;;;;;2.05;1.40;;;;;;;1.11;63.70;96082.22;5013696;28;20053;-79
2023/02/26 01:01:48;;;;;;;6.32;2.38;;;;;;;1.07;63.44;96080.88;5014817;28;20077;-79
2023/02/26 01:04:18;;;;;;;2.30;1.38;;;;;;;1.01;63.31;96082.25;5014777;28;20042;-78
2023/02/26 01:06:48;;;;;;;2.78;2.28;;;;;;;0.96;63.08;96073.31;5014469;28;20088;-78
2023/02/26 01:09:25;;;;;;;2.05;1.50;;;;;;;0.93;63.31;96079.53;5013980;28;20050;-79
2023/02/26 01:11:54;;;;;;;2.47;1.35;;;;;;;0.93;63.25;96078.72;5014230;28;20100;-79
2023/02/26 01:14:22;;;;;;;5.38;1.70;;;;;;;0.92;63.16;96079.66;5015137;28;20054;-79
2023/02/26 01:16:57;;;;;;;4.68;1.75;;;;;;;0.88;63.22;96086.84;5014602;28;20042;-78
2023/02/26 01:19:30;;;;;;;3.72;1.65;;;;;;;0.82;63.17;96083.03;5013769;28;20148;-79
2023/02/26 01:22:06;;;;;;;2.08;1.45;;;;;;;0.81;63.60;96086.56;5014579;28;20129;-79
2023/02/26 01:24:36;;;;;;;7.72;1.80;;;;;;;0.82;63.60;96077.91;5014217;28;20049;-79
2023/02/26 01:27:04;;;;;;;4.63;1.40;;;;;;;0.82;63.39;96082.22;5014357;28;20085;-79
2023/02/26 01:29:33;;;;;;;2.35;1.40;;;;;;;0.84;63.48;96074.41;5013643;28;20050;-79
2023/02/26 01:32:08;;;;;;;5.30;1.58;;;;;;;0.84;62.87;96071.84;5014243;28;20516;-78
2023/02/26 01:34:42;;;;;;;1.48;1.30;;;;;;;0.81;63.18;96081.44;5014091;28;20149;-79
2023/02/26 01:37:22;;;;;;;3.03;1.35;;;;;;;0.79;63.23;96078.19;5019423;28;20045;-78
2023/02/26 01:40:03;;;;;;;4.63;2.78;;;;;;;0.75;63.21;96081.16;5020071;28;20050;-79
2023/02/26 01:42:34;;;;;;;2.22;1.58;;;;;;;0.73;65.70;96080.47;5021413;28;20052;-79
2023/02/26 01:45:10;;;;;;;2.38;1.15;;;;;;;0.78;65.13;96086.81;5019519;28;20048;-79
2023/02/26 01:47:45;;;;;;;2.65;1.67;;;;;;;0.85;65.65;96086.28;5018450;28;20077;-78
2023/02/26 01:50:15;;;;;;;2.85;1.65;;;;;;;0.85;64.10;96083.72;5013501;28;20077;-79
2023/02/26 01:53:21;;;;;;;4.80;2.03;;;;;;;0.82;63.84;96083.03;5013942;28;20109;-79
2023/02/26 01:55:55;;;;;;;2.60;1.40;;;;;;;0.81;63.71;96086.56;5013435;28;20514;-78
2023/02/26 01:58:25;;;;;;;5.25;1.67;;;;;;;0.77;63.91;96082.63;5013197;28;20069;-78
2023/02/26 02:00:53;;;;;;;4.60;1.77;;;;;;;0.76;63.93;96075.88;5013815;28;20057;-79
2023/02/26 02:03:22;;;;;;;2.90;1.73;;;;;;;0.71;64.32;96075.47;5013451;28;20050;-79
2023/02/26 02:05:54;;;;;;;5.60;2.00;;;;;;;0.68;64.08;96080.03;5021271;28;20057;-78
2023/02/26 02:08:22;;;;;;;4.05;1.73;;;;;;;0.70;64.85;96083.28;5034437;28;20046;-80
2023/02/26 02:10:52;;;;;;;3.80;2.25;;;;;;;0.68;64.00;96082.59;5026185;28;20050;-80
2023/02/26 02:13:28;;;;;;;10.32;2.53;;;;;;;0.60;63.34;96083.28;5015606;28;20053;-78
2023/02/26 02:16:04;;;;;;;3.15;1.58;;;;;;;0.53;64.80;96082.19;5014725;28;20049;-79
2023/02/26 02:18:43;;;;;;;1.50;1.40;;;;;;;0.54;64.65;96078.69;5012700;28;20049;-79
2023/02/26 02:21:42;;;;;;;3.70;1.65;;;;;;;0.51;64.12;96078.94;5013709;28;20533;-78
2023/02/26 02:24:13;;;;;;;3.60;1.85;;;;;;;0.49;65.13;96078.28;5012511;28;20124;-78
2023/02/26 02:26:53;;;;;;;2.58;1.77;;;;;;;0.51;65.22;96086.66;5013240;28;20050;-79
2023/02/26 02:29:35;;;;;;;3.45;1.85;;;;;;;0.54;66.64;96097.44;5012799;28;20061;-79
2023/02/26 02:32:08;;;;;;;2.85;2.05;;;;;;;0.65;69.56;96093.97;5013228;28;20060;-78
2023/02/26 02:34:39;;;;;;;5.80;1.77;;;;;;;0.73;68.35;96099.25;5013360;28;20056;-79
2023/02/26 02:37:16;;;;;;;2.08;1.27;;;;;;;0.70;65.22;96101.25;5012954;28;20052;-80
2023/02/26 02:39:47;;;;;;;2.05;1.40;;;;;;;0.65;64.81;96104.22;5013110;28;20116;-79
2023/02/26 02:42:22;;;;;;;2.63;1.67;;;;;;;0.67;65.19;96109.22;5013302;28;20053;-79
2023/02/26 02:44:55;;;;;;;2.30;1.58;;;;;;;0.62;64.62;96107.06;5013198;28;20061;-78
2023/02/26 02:47:26;;;;;;;2.38;1.60;;;;;;;0.65;67.40;96116.25;5012897;28;20068;-78
2023/02/26 02:49:59;;;;;;;3.72;1.40;;;;;;;0.67;65.88;96115.16;5012295;28;20136;-79
2023/02/26 02:52:31;;;;;;;3.75;2.10;;;;;;;0.67;66.91;96104.91;5013110;28;20053;-78
2023/02/26 02:55:02;;;;;;;4.57;1.60;;;;;;;0.69;66.93;96112.47;5013297;28;20054;-78
2023/02/26 02:57:35;;;;;;;2.70;1.20;;;;;;;0.70;67.07;96109.78;5012792;28;20046;-78
2023/02/26 03:00:07;;;;;;;2.65;1.40;;;;;;;0.74;67.30;96116.25;5012094;28;20050;-78
2023/02/26 03:02:41;;;;;;;3.75;1.30;;;;;;;0.72;64.42;96122.47;5012661;28;20053;-78
2023/02/26 03:05:09;;;;;;;4.00;1.58;;;;;;;0.63;65.11;96124.06;5013038;28;20073;-78
2023/02/26 03:07:45;;;;;;;2.45;1.20;;;;;;;0.59;64.04;96122.72;5018392;28;20046;-79
2023/02/26 03:10:13;;;;;;;2.65;1.25;;;;;;;0.60;66.19;96119.22;5033027;28;20393;-79
2023/02/26 03:12:40;;;;;;;4.80;1.50;;;;;;;0.63;66.75;96118.94;5023736;28;20520;-80
2023/02/26 03:15:09;;;;;;;6.45;1.58;;;;;;;0.68;67.81;96127.09;5018653;28;20049;-79
2023/02/26 03:17:49;;;;;;;6.28;1.58;;;;;;;0.72;66.99;96125.03;5015782;28;20046;-79
2023/02/26 03:20:24;;;;;;;3.13;1.33;;;;;;;0.65;67.36;96132.47;5014983;28;20046;-79
2023/02/26 03:23:03;;;;;;;8.35;3.15;;;;;;;0.74;67.68;96131.66;5023697;28;20053;-79
2023/02/26 03:25:38;;;;;;;3.47;1.55;;;;;;;0.80;66.06;96138.03;5035799;28;20073;-78
2023/02/26 03:28:10;;;;;;;5.82;1.67;;;;;;;0.84;66.58;96141.97;5029010;28;20073;-79
2023/02/26 03:30:40;;;;;;;2.92;1.50;;;;;;;0.91;67.83;96139.69;5014424;28;20054;-79
2023/02/26 03:33:14;;;;;;;4.28;1.60;;;;;;;0.92;67.52;96143.84;5020781;28;20057;-79
2023/02/26 03:35:50;;;;;;;3.70;1.08;;;;;;;0.82;64.10;96143.84;5031205;28;20054;-79
2023/02/26 03:38:25;;;;;;;2.92;1.13;;;;;;;0.68;65.52;96141.66;5033238;28;20566;-79
2023/02/26 03:40:57;;;;;;;1.83;0.98;;;;;;;0.63;65.05;96143.81;5022830;28;20132;-79
2023/02/26 03:43:30;;;;;;;2.25;1.40;;;;;;;0.63;65.62;96147.19;5017942;28;20500;-79
2023/02/26 03:46:03;;;;;;;1.60;1.15;;;;;;;0.59;65.15;96158.66;5016182;28;20057;-79
2023/02/26 03:48:35;;;;;;;3.85;1.80;;;;;;;0.62;66.43;96158.41;5015883;28;20046;-79
2023/02/26 03:51:08;;;;;;;1.48;1.20;;;;;;;0.59;68.27;96158.66;5016494;28;20046;-78
2023/02/26 03:53:40;;;;;;;1.90;0.98;;;;;;;0.61;68.46;96156.75;5016106;28;20104;-78
2023/02/26 03:56:15;;;;;;;2.95;1.35;;;;;;;0.58;67.32;96159.59;5016061;28;20064;-78
2023/02/26 03:58:43;;;;;;;2.55;1.48;;;;;;;0.54;67.13;96160.81;5015170;28;20046;-79
2023/02/26 04:01:17;;;;;;;2.58;1.27;;;;;;;0.45;65.63;96162.38;5016101;28;20100;-79
2023/02/26 04:03:52;;;;;;;3.65;1.40;;;;;;;0.39;66.77;96168.88;5015590;28;20141;-78
2023/02/26 04:06:21;;;;;;;3.38;1.60;;;;;;;0.38;65.91;96180.06;5015728;28;20053;-78
2023/02/26 04:08:49;;;;;;;1.85;1.20;;;;;;;0.32;65.08;96175.44;5015269;28;20053;-79
2023/02/26 04:11:20;;;;;;;4.20;1.33;;;;;;;0.26;66.70;96175.94;5015811;28;20165;-79
2023/02/26 04:13:48;;;;;;;5.15;1.42;;;;;;;0.24;66.69;96180.41;5015798;28;20054;-79
2023/02/26 04:16:17;;;;;;;4.65;1.88;;;;;;;0.20;65.65;96184.16;5016167;28;20134;-78
2023/02/26 04:18:46;;;;;;;4.10;1.63;;;;;;;0.17;65.77;96184.41;5015155;28;20041;-78
2023/02/26 04:21:15;;;;;;;2.30;1.55;;;;;;;0.21;66.76;96185.78;5015935;28;20411;-78
2023/02/26 04:23:43;;;;;;;3.70;1.35;;;;;;;0.26;67.09;96181.06;5036666;22;20189;-80
2023/02/26 04:26:12;;;;;;;5.63;1.80;;;;;;;0.23;66.37;96186.47;5017801;28;20139;-80
2023/02/26 04:28:39;;;;;;;3.58;2.47;;;;;;;0.26;67.84;96188.78;5017068;28;20042;-80
2023/02/26 04:31:08;;;;;;;3.92;1.30;;;;;;;0.28;66.79;96184.31;5017311;28;20049;-80
2023/02/26 04:33:36;;;;;;;3.28;1.25;;;;;;;0.24;67.11;96185.53;5017596;28;20052;-80
2023/02/26 04:36:06;;;;;;;6.88;1.80;;;;;;;0.23;66.47;96186.47;5015925;28;20045;-81
2023/02/26 04:38:34;;;;;;;3.97;1.30;;;;;;;0.19;65.22;96187.66;5015102;28;20397;-80
2023/02/26 04:41:02;;;;;;;2.70;1.55;;;;;;;0.11;64.96;96193.44;5015892;28;20157;-81
2023/02/26 04:43:29;;;;;;;4.22;1.30;;;;;;;0.05;65.22;96196.50;5015704;28;20156;-81
2023/02/26 04:45:57;;;;;;;5.75;1.42;;;;;;;-0.04;65.01;96197.28;5015103;28;20061;-80
2023/02/26 04:48:25;;;;;;;3.88;1.50;;;;;;;-0.15;66.09;96198.16;5015056;28;20050;-81
2023/02/26 04:50:52;;;;;;;3.90;1.20;;;;;;;-0.11;67.92;96207.22;5015465;28;20492;-80
2023/02/26 04:53:21;;;;;;;4.40;1.70;;;;;;;0.02;69.48;96207.00;5015328;28;20583;-80
2023/02/26 04:55:49;;;;;;;3.30;2.15;;;;;;;0.05;66.69;96217.03;5015202;28;20050;-81
2023/02/26 04:58:19;;;;;;;5.25;2.22;;;;;;;-0.03;65.19;96215.06;5014552;28;20057;-80
2023/02/26 05:00:48;;;;;;;3.78;1.88;;;;;;;-0.13;65.30;96214.22;5015679;28;20060;-80
2023/02/26 05:03:16;;;;;;;2.13;1.80;;;;;;;-0.18;65.17;96226.56;5024456;28;20046;-79
2023/02/26 05:05:44;;;;;;;2.38;1.75;;;;;;;-0.19;65.54;96230.09;5028164;28;20109;-80
2023/02/26 05:08:12;;;;;;;4.18;2.22;;;;;;;-0.17;67.10;96223.09;5016503;28;20054;-80
2023/02/26 05:10:40;;;;;;;4.30;1.80;;;;;;;-0.09;68.46;96223.28;5015404;28;20084;-81
2023/02/26 05:13:08;;;;;;;2.17;1.90;;;;;;;-0.01;68.71;96228.59;5015275;28;20053;-80
2023/02/26 05:15:36;;;;;;;2.67;1.58;;;;;;;-0.01;67.98;96231.16;5015035;28;20046;-80
2023/02/26 05:18:03;;;;;;;4.45;1.98;;;;;;;0.02;67.15;96236.97;5014210;28;20050;-80
2023/02/26 05:20:31;;;;;;;4.65;2.20;;;;;;;-0.03;66.62;96238.16;5015371;28;20052;-80
2023/02/26 05:22:58;;;;;;;5.63;1.60;;;;;;;-0.07;66.46;96241.09;5014947;28;20135;-80
2023/02/26 05:25:26;;;;;;;3.72;1.98;;;;;;;-0.06;67.16;96243.53;5014754;28;20060;-79
2023/02/26 05:27:55;;;;;;;3.40;2.20;;;;;;;-0.03;68.92;96240.72;5014412;28;20057;-81
2023/02/26 05:30:23;;;;;;;3.28;1.77;;;;;;;0.06;68.60;96243.47;5014686;28;20050;-80
2023/02/26 05:32:50;;;;;;;3.83;1.95;;;;;;;0.07;67.83;96240.00;5014890;28;20428;-80
2023/02/26 05:35:18;;;;;;;6.03;2.30;;;;;;;0.03;67.95;96241.16;5015027;28;20413;-80
2023/02/26 05:37:45;;;;;;;5.43;2.03;;;;;;;0.04;68.48;96245.34;5014246;28;20046;-79
2023/02/26 05:40:13;;;;;;;3.72;2.30;;;;;;;0.07;68.50;96242.56;5014671;28;20046;-80
2023/02/26 05:42:41;;;;;;;2.35;1.92;;;;;;;0.04;68.02;96235.91;5014562;28;20061;-80
2023/02/26 05:45:10;;;;;;;6.72;2.03;;;;;;;0.07;67.44;96245.13;5014291;28;20504;-79
2023/02/26 05:47:38;;;;;;;3.22;1.73;;;;;;;0.03;66.99;96244.53;5014225;28;20515;-81
2023/02/26 05:50:07;;;;;;;5.30;1.85;;;;;;;-0.01;66.54;96251.66;5013664;28;20049;-80
2023/02/26 05:52:34;;;;;;;4.18;1.60;;;;;;;-0.03;67.69;96245.84;5014778;28;20080;-81
2023/02/26 05:55:02;;;;;;;2.67;1.67;;;;;;;-0.02;66.78;96255.19;5015097;28;20053;-80
2023/02/26 05:57:30;;;;;;;3.55;1.88;;;;;;;-0.01;68.56;96254.22;5013994;28;20053;-81
2023/02/26 05:59:57;;;;;;;3.67;1.75;;;;;;;-0.03;66.63;96253.53;5014708;28;20046;-81
2023/02/26 06:02:28;;;;;;;5.90;1.30;;;;;;;-0.05;68.10;96263.09;5014873;28;20133;-81
2023/02/26 06:04:55;;;;;;;2.70;1.60;;;;;;;0.02;69.14;96267.75;5014722;28;20046;-80
2023/02/26 06:07:23;;;;;;;3.53;2.25;;;;;;;0.04;67.80;96276.13;5014622;28;20053;-80
2023/02/26 06:09:51;;;;;;;2.55;1.40;;;;;;;-0.07;66.72;96275.22;5013324;28;20061;-81
2023/02/26 06:12:18;;;;;;;3.33;1.70;;;;;;;-0.12;66.52;96272.22;5013840;28;20571;-81
2023/02/26 06:14:46;;;;;;;4.85;2.00;;;;;;;-0.14;67.40;96271.53;5014004;28;20104;-80
2023/02/26 06:17:14;;;;;;;2.92;1.70;;;;;;;-0.09;69.01;96274.56;5013944;28;20112;-81
2023/02/26 06:19:43;;;;;;;3.85;1.65;;;;;;;-0.02;67.34;96280.00;5013477;28;20519;-80
2023/02/26 06:22:11;;;;;;;3.28;2.00;;;;;;;-0.09;65.71;96289.94;5014114;28;20144;-79
2023/02/26 06:24:38;;;;;;;3.92;2.03;;;;;;;-0.17;66.92;96294.88;5013546;28;20058;-81
2023/02/26 06:27:06;;;;;;;3.08;1.63;;;;;;;-0.13;69.22;96296.25;5013937;28;20042;-81
2023/02/26 06:29:36;;;;;;;5.63;2.30;;;;;;;-0.10;67.76;96301.13;5012077;28;20050;-79
2023/02/26 06:32:04;;;;;;;5.97;1.50;;;;;;;-0.15;66.77;96303.25;5013735;28;20050;-80
2023/02/26 06:34:31;;;;;;;5.35;1.70;;;;;;;-0.17;66.59;96300.00;5013897;28;20049;-80
2023/02/26 06:37:00;;;;;;;3.63;1.45;;;;;;;-0.16;66.74;96306.75;5013195;28;20049;-80
2023/02/26 06:39:28;;;;;;;3.33;1.83;;;;;;;-0.16;67.56;96305.94;5012718;28;20049;-80
2023/02/26 06:41:55;;;;;;;2.30;1.50;;;;;;;-0.13;66.58;96313.38;5013631;28;20416;-80
2023/02/26 06:44:23;;;;;;;2.47;1.65;;;;;;;-0.10;68.82;96323.41;5013425;28;20057;-80
2023/02/26 06:46:51;;;;;;;3.35;2.00;;;;;;;0.04;68.26;96323.09;5013719;28;20140;-80
2023/02/26 06:49:19;;;;;;;4.57;1.90;;;;;;;0.06;68.21;96328.91;5012661;28;20045;-80
2023/02/26 06:51:46;;;;;;;4.65;2.33;;;;;;;0.08;69.33;96328.78;5014802;28;20089;-81
2023/02/26 06:54:15;;;;;;;6.00;2.63;;;;;;;0.14;67.94;96330.88;5014253;28;20045;-80
2023/02/26 06:56:43;;;;;;;4.30;2.03;;;;;;;0.19;68.28;96332.13;5014008;28;20058;-80
2023/02/26 06:59:10;;;;;;;4.82;2.30;;;;;;;0.22;66.66;96332.81;5012594;28;20061;-80
2023/02/26 07:01:38;;;;;;;3.17;1.95;;;;;;;0.20;66.04;96338.06;5013087;28;20050;-80
2023/02/26 07:04:06;;;;;;;4.65;1.85;;;;;;;0.11;65.38;96343.94;5013195;28;20571;-80
2023/02/26 07:06:33;;;;;;;7.03;3.15;;;;;;;0.02;66.68;96340.34;5013581;28;20050;-81
2023/02/26 07:09:01;;;;;;;5.88;2.10;;;;;;;0.02;67.40;96345.47;5013101;28;20057;-80
2023/02/26 07:11:30;;;;;;;5.70;1.95;;;;;;;0.06;67.51;96348.63;5017510;28;20467;-80
2023/02/26 07:13:57;;;;;;;3.15;2.00;;;;;;;0.08;66.39;96354.44;5017898;28;20354;-80
2023/02/26 07:16:25;;;;;;;6.80;2.33;;;;;;;0.06;66.93;96356.31;5037759;28;20042;-80
2023/02/26 07:18:53;;;;;;;5.22;2.40;;;;;;;0.03;66.46;96356.56;5033864;28;20046;-81
2023/02/26 07:21:21;;;;;;;3.92;2.28;;;;;;;0.01;65.95;96358.44;5017640;28;20046;-80
2023/02/26 07:23:48;;;;;;;5.63;2.30;;;;;;;-0.01;65.82;96364.47;5016729;28;20619;-80
2023/02/26 07:26:16;;;;;;;4.13;2.00;;;;;;;-0.03;66.10;96370.69;5017195;28;20124;-80
2023/02/26 07:28:45;;;;;;;4.55;2.42;;;;;;;-0.05;65.79;96375.13;5015996;28;20050;-80
2023/02/26 07:31:15;;;;;;;4.28;1.55;;;;;;;-0.05;65.76;96386.19;5016549;28;20057;-80
2023/02/26 07:33:43;;;;;;;3.38;2.15;;;;;;;-0.07;65.53;96377.78;5016403;28;20144;-80
2023/02/26 07:36:10;;;;;;;4.15;1.70;;;;;;;-0.10;65.87;96383.16;5016711;28;20502;-80
2023/02/26 07:38:38;;;;;;;6.47;1.98;;;;;;;-0.12;65.41;96390.16;5016281;28;20046;-80
2023/02/26 07:41:05;;;;;;;6.18;1.80;;;;;;;-0.12;66.36;96395.28;5016936;28;20057;-80
2023/02/26 07:43:33;;;;;;;2.85;1.73;;;;;;;-0.09;65.83;96389.94;5016793;28;20054;-80
2023/02/26 07:46:02;;;;;;;3.10;1.75;;;;;;;-0.06;65.73;96389.69;5021526;28;20061;-80
2023/02/26 07:48:29;;;;;;;5.13;1.73;;;;;;;0.02;65.67;96398.50;5024078;28;20053;-80
2023/02/26 07:50:57;;;;;;;3.35;1.65;;;;;;;0.03;65.33;96393.28;5018941;28;20132;-80
2023/02/26 07:53:25;;;;;;;4.60;1.95;;;;;;;-0.01;65.01;96392.69;5016949;28;20045;-80
2023/02/26 07:55:52;;;;;;;3.33;1.73;;;;;;;-0.04;64.70;96392.16;5016819;28;20141;-80
2023/02/26 07:58:20;;;;;;;3.92;2.03;;;;;;;-0.08;64.88;96401.81;5015597;28;20492;-80
2023/02/26 08:00:47;;;;;;;3.88;1.50;;;;;;;-0.12;64.64;96399.63;5016584;28;20053;-80
2023/02/26 08:03:16;;;;;;;2.90;1.60;;;;;;;-0.11;64.73;96406.34;5016564;28;20049;-80
2023/02/26 08:05:44;;;;;;;5.38;2.67;;;;;;;-0.04;65.22;96403.22;5016273;28;20054;-80
2023/02/26 08:08:12;;;;;;;4.85;2.35;;;;;;;0.10;65.83;96401.31;5015719;28;20061;-80
2023/02/26 08:10:40;;;;;;;4.80;1.77;;;;;;;0.25;65.29;96402.66;5017960;28;20050;-81
2023/02/26 08:13:09;;;;;;;2.28;1.88;;;;;;;0.34;64.40;96401.91;5016201;28;20057;-81
2023/02/26 08:15:37;;;;;;;6.07;1.48;;;;;;;0.48;64.07;96405.09;5017327;28;20049;-79
2023/02/26 08:18:05;;;;;;;6.38;1.80;;;;;;;0.55;63.09;96406.25;5016245;28;20293;-80
2023/02/26 08:20:34;;;;;;;7.93;1.83;;;;;;;0.66;62.41;96408.75;5015988;28;20133;-80
2023/02/26 08:23:01;;;;;;;2.20;1.73;;;;;;;0.75;62.57;96410.56;5016175;28;20053;-80
2023/02/26 08:25:29;;;;;;;3.17;1.60;;;;;;;1.04;61.68;96415.06;5015835;28;20420;-80
2023/02/26 08:27:57;;;;;;;3.97;1.70;;;;;;;1.21;60.96;96406.78;5015112;28;20050;-81
2023/02/26 08:30:25;;;;;;;3.85;1.50;;;;;;;1.30;60.93;96422.38;5015966;28;20636;-81
2023/02/26 08:32:52;;;;;;;4.07;1.70;;;;;;;1.23;60.57;96414.38;5015720;28;20057;-81
2023/02/26 08:35:20;;;;;;;3.50;1.50;;;;;;;1.18;61.00;96411.34;5015610;28;20499;-81
2023/02/26 08:37:49;;;;;;;4.97;2.05;;;;;;;1.50;60.50;96411.22;5015414;28;20056;-80
2023/02/26 08:40:16;;;;;;;1.77;1.17;;;;;;;1.85;59.27;96404.81;5015708;28;20052;-81
2023/02/26 08:42:44;;;;;;;4.03;1.27;;;;;;;1.85;59.75;96407.41;5015282;28;20145;-81
2023/02/26 08:45:12;;;;;;;2.45;1.63;;;;;;;1.80;59.27;96418.09;5015865;28;20152;-80
2023/02/26 08:47:42;;;;;;;3.53;1.40;;;;;;;1.70;59.36;96412.09;5015446;28;20053;-79
2023/02/26 08:50:23;;;;;;;3.05;1.95;;;;;;;1.51;60.42;96433.41;5015187;28;20054;-80
2023/02/26 08:52:52;;;;;;;5.43;2.20;;;;;;;1.39;60.13;96429.31;5015405;28;20054;-80
2023/02/26 08:55:20;;;;;;;2.15;1.35;;;;;;;1.21;60.23;96439.38;5015067;28;20050;-80
2023/02/26 08:57:47;;;;;;;3.22;1.60;;;;;;;1.07;60.90;96442.25;5014628;28;20149;-80
2023/02/26 09:00:17;;;;;;;4.35;1.67;;;;;;;0.96;60.37;96446.53;5014745;28;20049;-81
2023/02/26 09:02:45;;;;;;;3.35;1.30;;;;;;;0.86;61.02;96452.56;5015090;28;20112;-80
2023/02/26 09:05:13;;;;;;;3.40;1.63;;;;;;;0.81;61.13;96455.50;5015078;28;20049;-80
2023/02/26 09:07:42;;;;;;;5.05;1.60;;;;;;;0.75;61.17;96453.41;5015913;28;20143;-81
2023/02/26 09:10:13;;;;;;;3.38;1.48;;;;;;;0.69;61.52;96464.97;5014899;28;20167;-81
2023/02/26 09:12:41;;;;;;;5.20;2.88;;;;;;;0.66;61.33;96467.81;5014938;28;20061;-81
2023/02/26 09:15:10;;;;;;;2.65;1.63;;;;;;;0.62;61.58;96471.56;5014575;28;20496;-81
2023/02/26 09:17:38;;;;;;;2.25;1.30;;;;;;;0.63;61.77;96478.31;5014910;28;20046;-79
2023/02/26 09:20:08;;;;;;;1.98;1.60;;;;;;;0.60;61.75;96476.00;5014007;28;20056;-80
2023/02/26 09:22:36;;;;;;;2.75;1.60;;;;;;;0.59;62.17;96477.75;5014802;28;20133;-81
2023/02/26 09:25:05;;;;;;;3.22;1.60;;;;;;;0.63;62.63;96478.31;5014312;28;20077;-79
2023/02/26 09:27:35;;;;;;;1.90;1.45;;;;;;;0.66;62.22;96478.06;5014434;28;20141;-80
2023/02/26 09:30:03;;;;;;;2.40;1.50;;;;;;;0.63;61.68;96486.00;5013925;28;20058;-80
2023/02/26 09:32:31;;;;;;;2.80;1.80;;;;;;;0.62;61.90;96486.97;5014312;28;20054;-81
2023/02/26 09:34:59;;;;;;;11.10;6.25;;;;;;;0.62;61.73;96492.09;5014476;28;20136;-80
2023/02/26 09:37:27;;;;;;;4.03;2.40;;;;;;;0.60;61.63;96488.84;5014623;28;20045;-80
2023/02/26 09:39:55;;;;;;;5.25;1.85;;;;;;;0.54;62.15;96489.31;5014020;28;20053;-81
2023/02/26 09:42:33;;;;;;;2.50;1.90;;;;;;;0.57;65.56;96496.78;5014793;28;20054;-81
2023/02/26 09:45:02;;;;;;;3.60;1.65;;;;;;;0.64;63.42;96495.34;5014401;28;20507;-79
2023/02/26 09:47:39;;;;;;;6.85;2.17;;;;;;;0.73;64.78;96499.75;5014671;28;20561;-81
2023/02/26 09:50:16;;;;;;;4.53;1.73;;;;;;;0.86;65.28;96499.56;5013857;28;20077;-80
2023/02/26 09:52:49;;;;;;;2.53;1.67;;;;;;;0.97;64.12;96501.28;5015164;28;20061;-81
2023/02/26 09:55:24;;;;;;;5.53;2.20;;;;;;;1.05;64.04;96505.78;5022188;28;20054;-79
2023/02/26 09:57:56;;;;;;;3.50;2.00;;;;;;;1.10;64.03;96501.09;5037217;28;20093;-79
2023/02/26 10:00:32;;;;;;;2.72;2.10;;;;;;;1.16;64.29;96500.56;5037743;28;20113;-79
2023/02/26 10:03:11;;;;;;;3.00;2.05;;;;;;;1.22;63.21;96505.22;5037372;28;20085;-79
2023/02/26 10:05:44;;;;;;;5.13;3.15;;;;;;;1.24;63.85;96514.44;5026546;28;20137;-80
2023/02/26 10:08:15;;;;;;;3.05;1.70;;;;;;;1.27;62.45;96512.53;5013714;28;20137;-80
2023/02/26 10:10:49;;;;;;;2.22;1.88;;;;;;;1.24;62.43;96519.56;5014454;28;20056;-80
2023/02/26 10:13:25;;;;;;;2.38;1.77;;;;;;;1.22;61.74;96518.91;5013985;28;20443;-80
2023/02/26 10:16:07;;;;;;;4.05;2.63;;;;;;;1.26;63.34;96516.06;5014012;28;20054;-81
2023/02/26 10:18:42;;;;;;;4.88;2.00;;;;;;;1.35;62.27;96523.03;5013275;28;20055;-80
2023/02/26 10:21:14;;;;;;;3.23;1.87;;;;;;;1.44;62.91;96522.25;5013696;28;20046;-80
2023/02/26 10:23:45;;;;;;;4.03;2.08;;;;;;;1.56;63.19;96528.97;5013852;28;20088;-80
2023/02/26 10:26:19;;;;;;;3.40;1.90;;;;;;;1.63;63.26;96532.66;5051596;22;20046;-80
2023/02/26 10:28:57;;;;;;;2.38;1.80;;;;;;;1.72;63.66;96527.69;5017646;28;20054;-80
2023/02/26 10:31:32;;;;;;;2.05;1.70;;;;;;;1.80;61.81;96531.25;5017021;28;20053;-79
2023/02/26 10:34:11;;;;;;;2.08;1.60;;;;;;;1.92;64.51;96521.66;5016012;28;20058;-80
2023/02/26 10:36:47;;;;;;;4.63;1.60;;;;;;;2.03;62.25;96526.75;4996040;28;20050;-79
2023/02/26 10:39:27;;;;;;;2.30;2.10;;;;;;;2.11;61.56;96527.84;4993154;28;20419;-79
2023/02/26 10:41:59;;;;;;;1.85;1.40;;;;;;;2.15;61.78;96535.16;4993811;28;20056;-79
2023/02/26 10:44:32;;;;;;;3.53;2.08;;;;;;;2.12;61.47;96529.44;4993106;28;20054;-79
2023/02/26 10:47:07;;;;;;;2.20;1.70;;;;;;;2.14;61.71;96532.72;5000868;28;20054;-80
2023/02/26 10:49:49;;;;;;;3.10;1.98;;;;;;;2.19;61.73;96531.38;5014780;28;20050;-80
2023/02/26 10:52:19;;;;;;;2.08;1.65;;;;;;;2.23;61.31;96535.34;5011251;28;20070;-79
2023/02/26 10:55:07;;;;;;;3.58;2.03;;;;;;;2.19;61.14;96525.44;5011586;28;20076;-80
2023/02/26 10:57:40;;;;;;;1.90;1.80;;;;;;;2.16;61.93;96526.50;5003757;28;20056;-80
2023/02/26 11:00:16;;;;;;;;;;;;;;;2.28;62.63;96534.13;4994897;28;20077;-79
2023/02/26 11:02:48;;;;;;;2.47;1.80;;;;;;;2.37;62.22;96528.19;4994191;28;19922;-79
2023/02/26 11:05:18;;;;;;;3.40;2.38;;;;;;;2.50;61.87;96535.66;4993874;28;20085;-80
2023/02/26 11:07:49;;;;;;;3.25;1.90;;;;;;;2.62;61.42;96543.16;4993157;28;20058;-79
2023/02/26 11:10:20;;;;;;;1.70;1.60;;;;;;;2.86;60.72;96535.03;4993547;28;20527;-79
2023/02/26 11:12:48;;;;;;;1.90;1.70;;;;;;;3.12;61.09;96534.47;4994618;28;20151;-80
2023/02/26 11:15:19;;;;;;;3.28;2.58;;;;;;;3.27;60.04;96533.09;4994738;28;20129;-79
2023/02/26 11:17:53;;;;;;;1.65;1.55;;;;;;;3.29;59.39;96536.34;4993151;28;20054;-79
2023/02/26 11:20:29;;;;;;;2.42;1.88;;;;;;;3.17;57.89;96532.31;4993501;28;20050;-80
2023/02/26 11:22:59;;;;;;;3.15;1.58;;;;;;;3.00;58.69;96541.53;4993440;28;20056;-79
2023/02/26 11:25:29;;;;;;;2.42;1.80;;;;;;;2.92;58.72;96540.59;4993077;28;20084;-79
2023/02/26 11:28:01;;;;;;;2.10;2.00;;;;;;;2.87;59.12;96541.78;4992372;28;20054;-80
2023/02/26 11:30:32;;;;;;;2.22;2.00;;;;;;;2.98;58.93;96538.28;4993259;28;20489;-79
2023/02/26 11:33:15;;;;;;;1.40;1.30;;;;;;;3.02;57.82;96541.41;4993063;28;20492;-80
2023/02/26 11:35:43;;;;;;;2.17;1.80;;;;;;;2.99;58.23;96533.94;4993193;28;20054;-80
2023/02/26 11:38:18;;;;;;;1.45;1.17;;;;;;;2.99;57.91;96531.34;4992246;28;20068;-79
2023/02/26 11:40:48;;;;;;;3.70;1.70;;;;;;;3.05;58.90;96531.63;4993146;28;20084;-80
2023/02/26 11:43:19;;;;;;;2.72;1.70;;;;;;;3.15;58.27;96534.22;4993711;28;20085;-80
2023/02/26 11:45:52;;;;;;;1.80;1.70;;;;;;;3.15;57.99;96541.09;4993498;28;20061;-80
2023/02/26 11:48:24;;;;;;;3.28;1.90;;;;;;;3.15;57.65;96529.06;4992274;28;20050;-80
2023/02/26 11:50:56;;;;;;;1.92;1.75;;;;;;;3.29;57.33;96533.78;4993073;28;20046;-80
2023/02/26 11:53:29;;;;;;;1.80;1.40;;;;;;;3.32;57.39;96529.28;4993067;28;20129;-80
2023/02/26 11:56:01;;;;;;;2.08;1.50;;;;;;;3.25;57.44;96535.00;4994239;28;20072;-80
2023/02/26 11:58:35;;;;;;;1.67;1.20;;;;;;;3.20;57.27;96539.75;4996098;28;20334;-80